Alma, Kansas
Current Conditions -  °F | °C
As of 6:52 PM on Friday 24 Oct 2014 (Local Time) from KMHK Reporting Station
Clear Clear  
Wind Chill: 72°   Ceiling: Unl
Heat Index: 72°   Visibility: 10mi
Dew Point: 63°   Wind: 7mph
Humidity: 73%   Direction: 210°SSW
Pressure: 29.93"   Gusts: NA
Location:  39.02°N, 96.29°W
Report Text: KMHK 242352Z 21006KT 10SM CLR 22/17 A2993 RMK AO2 SLP129 T02220172 10278 20222 55001
Loading
Personal Weather Stations






























Interactive Weather Map
Tropical Storm Tracking
New forecast layout! Learn more

10-Day Weather Forecast

Advertisements
Track Severe Weather on mobile